Accueil
METAR-TAF:

METAR-TAF

Aéroports :

Base aérienne 701 Salon-de-Provence

Salon-de-Provence, France

latitude: 43-36N, longitude: 005-06E, altitude: 59 m

Observation

Le bulletin a été fait il y a 28 minutes, à 06:30 UTC
Vent calme
Température 13°C
Humidité 82%
Pression 1025 hPa
Visibilité 10 km ou plus
pas de nuages en-dessous de 1500 mètres et pas de cumulonimbus.

METAR: LFMY 140630Z AUTO 00000KT CAVOK 13/10 Q1025

Heure: 08:58 (06:58 UTC)

Prévision

Le bulletin a été fait il y a 16 heures et 58 minutes, à 14:00 UTC
Prévision valable du 12 à 15 UTC au 13 à 15 UTC
Vent 10 kt de nord
Visibilité 10 km ou plus
pas de nuages en-dessous de 1500 mètres et pas de cumulonimbus.
Evoluant progressivement
du 12 à 19 UTC au 12 à 21 UTC
Vent 3 kt de direction variable

TAF: LFMY 121400Z 1215/1315 35010KT CAVOK TX27/1314Z TN06/1304Z BECMG 1219/1221 VRB03KT

Observations et prévisions météorologiques de plus de 4000 aéroports (messages METAR et TAF).

Les stations disponibles sont représentées par des disques jaunes et rouges sur la carte.

Passer la souris dessus pour voir le nom de la station.

Cliquer dessus pour voir les observations et prévisions météorologiques.

Pour changer de carte: cliquez sur les boutons verts avec une croix noire pour zoomer, sur le bouton vert avec un tiret pour effectuer un zoom arrière, ou sur les flèches vertes pour les cartes adjacentes.


METAR-TAF: